Aviation Digital Data Service (ADDS)

Output produced by METARs form (0347 UTC 17 July 2018)
found at http://aviationweather.gov/adds/metars/
 
KLFK 170253Z AUTO 16004KT 10SM CLR 28/23 A3000 RMK AO2 SLP154 T02780233 53008 TSNO